sensor_id;sensor_type;location;lat;lon;timestamp;P1;durP1;ratioP1;P2;durP2;ratioP2
3769;SDS011;1900;48.890;9.190;2022-12-26T00:01:36;2.50;;;2.03;;
3769;SDS011;1900;48.890;9.190;2022-12-26T00:04:03;3.97;;;2.40;;
3769;SDS011;1900;48.890;9.190;2022-12-26T00:06:30;8.10;;;2.73;;
3769;SDS011;1900;48.890;9.190;2022-12-26T00:08:57;3.17;;;2.27;;
3769;SDS011;1900;48.890;9.190;2022-12-26T00:11:25;3.67;;;2.90;;
3769;SDS011;1900;48.890;9.190;2022-12-26T00:13:54;4.23;;;2.63;;
3769;SDS011;1900;48.890;9.190;2022-12-26T00:16:21;3.07;;;2.53;;
3769;SDS011;1900;48.890;9.190;2022-12-26T00:18:48;3.97;;;3.03;;
3769;SDS011;1900;48.890;9.190;2022-12-26T00:21:14;3.93;;;2.70;;
3769;SDS011;1900;48.890;9.190;2022-12-26T00:23:41;4.30;;;2.97;;
3769;SDS011;1900;48.890;9.190;2022-12-26T00:26:11;3.53;;;2.90;;
3769;SDS011;1900;48.890;9.190;2022-12-26T00:28:38;4.83;;;2.93;;
3769;SDS011;1900;48.890;9.190;2022-12-26T00:31:05;3.10;;;2.80;;
3769;SDS011;1900;48.890;9.190;2022-12-26T00:33:33;3.37;;;2.93;;
3769;SDS011;1900;48.890;9.190;2022-12-26T00:36:03;6.17;;;2.70;;
3769;SDS011;1900;48.890;9.190;2022-12-26T00:38:32;4.30;;;2.60;;
3769;SDS011;1900;48.890;9.190;2022-12-26T00:40:59;3.37;;;2.60;;
3769;SDS011;1900;48.890;9.190;2022-12-26T00:43:25;3.30;;;2.70;;
3769;SDS011;1900;48.890;9.190;2022-12-26T00:45:51;5.07;;;2.87;;
3769;SDS011;1900;48.890;9.190;2022-12-26T00:48:16;3.20;;;2.50;;
3769;SDS011;1900;48.890;9.190;2022-12-26T00:50:42;4.53;;;2.80;;
3769;SDS011;1900;48.890;9.190;2022-12-26T00:53:08;3.30;;;3.00;;
3769;SDS011;1900;48.890;9.190;2022-12-26T00:55:33;3.60;;;2.60;;
3769;SDS011;1900;48.890;9.190;2022-12-26T00:57:59;2.80;;;2.60;;
3769;SDS011;1900;48.890;9.190;2022-12-26T01:00:25;4.17;;;3.10;;
3769;SDS011;1900;48.890;9.190;2022-12-26T01:02:51;6.20;;;3.27;;
3769;SDS011;1900;48.890;9.190;2022-12-26T01:05:16;3.67;;;2.90;;
3769;SDS011;1900;48.890;9.190;2022-12-26T01:07:42;5.93;;;2.93;;
3769;SDS011;1900;48.890;9.190;2022-12-26T01:10:09;4.30;;;2.70;;
3769;SDS011;1900;48.890;9.190;2022-12-26T01:12:37;6.50;;;3.07;;
3769;SDS011;1900;48.890;9.190;2022-12-26T01:15:03;5.53;;;2.70;;
3769;SDS011;1900;48.890;9.190;2022-12-26T01:17:31;4.20;;;2.83;;
3769;SDS011;1900;48.890;9.190;2022-12-26T01:19:57;4.57;;;3.10;;
3769;SDS011;1900;48.890;9.190;2022-12-26T01:22:23;7.53;;;3.20;;
3769;SDS011;1900;48.890;9.190;2022-12-26T01:24:53;3.97;;;2.90;;
3769;SDS011;1900;48.890;9.190;2022-12-26T01:27:20;4.60;;;2.40;;
3769;SDS011;1900;48.890;9.190;2022-12-26T01:29:46;5.93;;;3.43;;
3769;SDS011;1900;48.890;9.190;2022-12-26T01:32:12;6.17;;;3.00;;
3769;SDS011;1900;48.890;9.190;2022-12-26T01:34:38;3.23;;;2.93;;
3769;SDS011;1900;48.890;9.190;2022-12-26T01:37:03;4.63;;;3.60;;
3769;SDS011;1900;48.890;9.190;2022-12-26T01:39:29;5.93;;;3.83;;
3769;SDS011;1900;48.890;9.190;2022-12-26T01:41:55;3.20;;;2.70;;
3769;SDS011;1900;48.890;9.190;2022-12-26T01:47:17;3.70;;;2.57;;
3769;SDS011;1900;48.890;9.190;2022-12-26T01:49:46;2.53;;;2.33;;
3769;SDS011;1900;48.890;9.190;2022-12-26T01:52:16;4.27;;;2.97;;
3769;SDS011;1900;48.890;9.190;2022-12-26T01:55:10;2.67;;;2.40;;
3769;SDS011;1900;48.890;9.190;2022-12-26T01:57:39;3.43;;;2.60;;
3769;SDS011;1900;48.890;9.190;2022-12-26T02:00:08;3.73;;;3.17;;
3769;SDS011;1900;48.890;9.190;2022-12-26T02:02:38;8.10;;;3.10;;
3769;SDS011;1900;48.890;9.190;2022-12-26T02:05:24;4.10;;;2.93;;
3769;SDS011;1900;48.890;9.190;2022-12-26T02:08:10;4.77;;;3.10;;
3769;SDS011;1900;48.890;9.190;2022-12-26T02:13:36;3.70;;;2.83;;
3769;SDS011;1900;48.890;9.190;2022-12-26T02:16:03;5.13;;;3.00;;
3769;SDS011;1900;48.890;9.190;2022-12-26T02:18:30;3.63;;;3.00;;
3769;SDS011;1900;48.890;9.190;2022-12-26T02:26:27;3.90;;;3.10;;
3769;SDS011;1900;48.890;9.190;2022-12-26T02:29:12;3.97;;;3.43;;
3769;SDS011;1900;48.890;9.190;2022-12-26T02:34:14;4.50;;;3.27;;
3769;SDS011;1900;48.890;9.190;2022-12-26T02:48:51;11.30;;;3.33;;
3769;SDS011;1900;48.890;9.190;2022-12-26T02:51:32;3.30;;;2.57;;
3769;SDS011;1900;48.890;9.190;2022-12-26T02:57:23;3.90;;;2.70;;
3769;SDS011;1900;48.890;9.190;2022-12-26T03:00:18;3.70;;;2.70;;
3769;SDS011;1900;48.890;9.190;2022-12-26T03:03:06;5.00;;;2.33;;
3769;SDS011;1900;48.890;9.190;2022-12-26T03:08:54;3.23;;;2.53;;
3769;SDS011;1900;48.890;9.190;2022-12-26T03:11:59;4.90;;;2.80;;
3769;SDS011;1900;48.890;9.190;2022-12-26T03:14:53;3.90;;;2.80;;
3769;SDS011;1900;48.890;9.190;2022-12-26T03:20:00;4.20;;;2.77;;
3769;SDS011;1900;48.890;9.190;2022-12-26T03:22:44;3.17;;;2.50;;
3769;SDS011;1900;48.890;9.190;2022-12-26T03:25:30;5.50;;;2.70;;
3769;SDS011;1900;48.890;9.190;2022-12-26T03:28:24;2.73;;;2.40;;
3769;SDS011;1900;48.890;9.190;2022-12-26T03:30:50;4.20;;;3.70;;
3769;SDS011;1900;48.890;9.190;2022-12-26T03:36:04;3.30;;;2.50;;
3769;SDS011;1900;48.890;9.190;2022-12-26T03:38:33;3.40;;;2.70;;
3769;SDS011;1900;48.890;9.190;2022-12-26T03:41:07;4.00;;;2.67;;
3769;SDS011;1900;48.890;9.190;2022-12-26T03:50:19;3.00;;;2.70;;
3769;SDS011;1900;48.890;9.190;2022-12-26T03:53:31;4.03;;;2.40;;
3769;SDS011;1900;48.890;9.190;2022-12-26T03:56:34;3.60;;;2.80;;
3769;SDS011;1900;48.890;9.190;2022-12-26T03:59:35;3.23;;;2.40;;
3769;SDS011;1900;48.890;9.190;2022-12-26T04:02:26;3.23;;;2.30;;
3769;SDS011;1900;48.890;9.190;2022-12-26T04:05:14;3.20;;;2.70;;
3769;SDS011;1900;48.890;9.190;2022-12-26T04:08:01;2.80;;;2.50;;
3769;SDS011;1900;48.890;9.190;2022-12-26T04:10:55;2.90;;;2.60;;
3769;SDS011;1900;48.890;9.190;2022-12-26T04:13:55;3.23;;;2.80;;
3769;SDS011;1900;48.890;9.190;2022-12-26T04:16:48;7.80;;;3.00;;
3769;SDS011;1900;48.890;9.190;2022-12-26T04:22:46;3.60;;;2.80;;
3769;SDS011;1900;48.890;9.190;2022-12-26T04:25:36;3.37;;;2.60;;
3769;SDS011;1900;48.890;9.190;2022-12-26T04:28:28;3.63;;;2.80;;
3769;SDS011;1900;48.890;9.190;2022-12-26T04:31:15;2.90;;;2.20;;
3769;SDS011;1900;48.890;9.190;2022-12-26T04:34:06;3.27;;;2.50;;
3769;SDS011;1900;48.890;9.190;2022-12-26T04:36:56;5.77;;;3.10;;
3769;SDS011;1900;48.890;9.190;2022-12-26T04:39:46;3.83;;;2.33;;
3769;SDS011;1900;48.890;9.190;2022-12-26T04:42:33;4.10;;;2.60;;
3769;SDS011;1900;48.890;9.190;2022-12-26T04:45:19;3.80;;;2.73;;
3769;SDS011;1900;48.890;9.190;2022-12-26T04:47:45;5.30;;;2.60;;
3769;SDS011;1900;48.890;9.190;2022-12-26T04:50:31;2.57;;;2.37;;
3769;SDS011;1900;48.890;9.190;2022-12-26T04:52:57;4.63;;;2.80;;
3769;SDS011;1900;48.890;9.190;2022-12-26T04:55:30;3.70;;;2.53;;
3769;SDS011;1900;48.890;9.190;2022-12-26T04:57:57;3.97;;;2.80;;
3769;SDS011;1900;48.890;9.190;2022-12-26T05:00:25;5.33;;;2.50;;
3769;SDS011;1900;48.890;9.190;2022-12-26T05:02:52;6.87;;;2.70;;
3769;SDS011;1900;48.890;9.190;2022-12-26T05:05:40;4.03;;;2.93;;
3769;SDS011;1900;48.890;9.190;2022-12-26T05:08:41;4.23;;;2.50;;
3769;SDS011;1900;48.890;9.190;2022-12-26T05:11:26;3.50;;;2.30;;
3769;SDS011;1900;48.890;9.190;2022-12-26T05:13:54;4.07;;;2.63;;
3769;SDS011;1900;48.890;9.190;2022-12-26T05:16:21;4.03;;;2.87;;
3769;SDS011;1900;48.890;9.190;2022-12-26T05:19:08;6.80;;;3.30;;
3769;SDS011;1900;48.890;9.190;2022-12-26T05:22:11;2.73;;;2.53;;
3769;SDS011;1900;48.890;9.190;2022-12-26T05:25:16;2.80;;;2.47;;
3769;SDS011;1900;48.890;9.190;2022-12-26T05:28:03;2.90;;;2.20;;
3769;SDS011;1900;48.890;9.190;2022-12-26T05:30:48;3.20;;;2.50;;
3769;SDS011;1900;48.890;9.190;2022-12-26T05:33:14;2.63;;;2.40;;
3769;SDS011;1900;48.890;9.190;2022-12-26T05:35:58;2.87;;;2.53;;
3769;SDS011;1900;48.890;9.190;2022-12-26T05:38:24;3.00;;;2.43;;
3769;SDS011;1900;48.890;9.190;2022-12-26T05:40:49;3.03;;;2.50;;
3769;SDS011;1900;48.890;9.190;2022-12-26T05:43:15;5.23;;;2.83;;
3769;SDS011;1900;48.890;9.190;2022-12-26T05:45:42;4.57;;;3.03;;
3769;SDS011;1900;48.890;9.190;2022-12-26T05:48:08;3.23;;;2.30;;
3769;SDS011;1900;48.890;9.190;2022-12-26T05:50:34;2.43;;;2.17;;
3769;SDS011;1900;48.890;9.190;2022-12-26T05:52:59;5.70;;;3.00;;
3769;SDS011;1900;48.890;9.190;2022-12-26T05:55:25;2.70;;;1.87;;
3769;SDS011;1900;48.890;9.190;2022-12-26T05:57:51;5.13;;;3.17;;
3769;SDS011;1900;48.890;9.190;2022-12-26T06:00:17;4.70;;;2.60;;
3769;SDS011;1900;48.890;9.190;2022-12-26T06:02:42;3.57;;;2.57;;
3769;SDS011;1900;48.890;9.190;2022-12-26T06:05:08;6.03;;;2.90;;
3769;SDS011;1900;48.890;9.190;2022-12-26T06:07:34;2.40;;;2.20;;
3769;SDS011;1900;48.890;9.190;2022-12-26T06:10:00;2.90;;;2.20;;
3769;SDS011;1900;48.890;9.190;2022-12-26T06:12:26;4.20;;;2.80;;
3769;SDS011;1900;48.890;9.190;2022-12-26T06:14:51;6.60;;;2.90;;
3769;SDS011;1900;48.890;9.190;2022-12-26T06:17:17;2.30;;;2.10;;
3769;SDS011;1900;48.890;9.190;2022-12-26T06:19:43;2.70;;;2.50;;
3769;SDS011;1900;48.890;9.190;2022-12-26T06:22:08;3.10;;;2.70;;
3769;SDS011;1900;48.890;9.190;2022-12-26T06:24:35;2.90;;;2.50;;
3769;SDS011;1900;48.890;9.190;2022-12-26T06:27:00;2.77;;;2.40;;
3769;SDS011;1900;48.890;9.190;2022-12-26T06:29:26;2.67;;;2.47;;
3769;SDS011;1900;48.890;9.190;2022-12-26T06:31:52;3.00;;;2.67;;
3769;SDS011;1900;48.890;9.190;2022-12-26T06:34:17;7.00;;;2.53;;
3769;SDS011;1900;48.890;9.190;2022-12-26T06:36:43;4.90;;;2.60;;
3769;SDS011;1900;48.890;9.190;2022-12-26T06:39:09;3.00;;;2.33;;
3769;SDS011;1900;48.890;9.190;2022-12-26T06:41:35;5.13;;;2.83;;
3769;SDS011;1900;48.890;9.190;2022-12-26T06:44:00;3.17;;;2.20;;
3769;SDS011;1900;48.890;9.190;2022-12-26T06:46:26;3.87;;;2.27;;
3769;SDS011;1900;48.890;9.190;2022-12-26T06:48:52;3.70;;;2.60;;
3769;SDS011;1900;48.890;9.190;2022-12-26T06:51:22;5.03;;;2.53;;
3769;SDS011;1900;48.890;9.190;2022-12-26T06:53:50;4.37;;;2.57;;
3769;SDS011;1900;48.890;9.190;2022-12-26T06:56:24;2.90;;;2.70;;
3769;SDS011;1900;48.890;9.190;2022-12-26T06:58:54;4.17;;;2.60;;
3769;SDS011;1900;48.890;9.190;2022-12-26T07:01:21;3.00;;;2.37;;
3769;SDS011;1900;48.890;9.190;2022-12-26T07:03:50;4.73;;;2.60;;
3769;SDS011;1900;48.890;9.190;2022-12-26T07:06:21;4.17;;;2.80;;
3769;SDS011;1900;48.890;9.190;2022-12-26T07:08:47;3.33;;;2.10;;
3769;SDS011;1900;48.890;9.190;2022-12-26T07:11:14;3.03;;;2.50;;
3769;SDS011;1900;48.890;9.190;2022-12-26T07:13:44;3.70;;;2.77;;
3769;SDS011;1900;48.890;9.190;2022-12-26T07:16:11;4.27;;;2.40;;
3769;SDS011;1900;48.890;9.190;2022-12-26T07:18:37;3.47;;;2.67;;
3769;SDS011;1900;48.890;9.190;2022-12-26T07:21:03;4.33;;;2.60;;
3769;SDS011;1900;48.890;9.190;2022-12-26T07:23:30;3.13;;;2.60;;
3769;SDS011;1900;48.890;9.190;2022-12-26T07:25:55;2.67;;;2.40;;
3769;SDS011;1900;48.890;9.190;2022-12-26T07:28:21;3.47;;;3.17;;
3769;SDS011;1900;48.890;9.190;2022-12-26T07:30:48;4.13;;;3.10;;
3769;SDS011;1900;48.890;9.190;2022-12-26T07:33:14;4.27;;;2.80;;
3769;SDS011;1900;48.890;9.190;2022-12-26T07:35:40;5.80;;;3.30;;
3769;SDS011;1900;48.890;9.190;2022-12-26T07:38:06;4.07;;;3.07;;
3769;SDS011;1900;48.890;9.190;2022-12-26T07:40:31;3.07;;;2.70;;
3769;SDS011;1900;48.890;9.190;2022-12-26T07:42:57;5.67;;;3.10;;
3769;SDS011;1900;48.890;9.190;2022-12-26T07:45:23;6.77;;;3.33;;
3769;SDS011;1900;48.890;9.190;2022-12-26T07:47:52;3.10;;;2.53;;
3769;SDS011;1900;48.890;9.190;2022-12-26T07:50:18;2.83;;;2.60;;
3769;SDS011;1900;48.890;9.190;2022-12-26T07:52:44;3.93;;;3.00;;
3769;SDS011;1900;48.890;9.190;2022-12-26T07:55:11;5.90;;;3.17;;
3769;SDS011;1900;48.890;9.190;2022-12-26T07:57:36;8.23;;;3.60;;
3769;SDS011;1900;48.890;9.190;2022-12-26T08:00:02;4.93;;;3.30;;
3769;SDS011;1900;48.890;9.190;2022-12-26T08:02:37;6.17;;;3.53;;
3769;SDS011;1900;48.890;9.190;2022-12-26T08:05:03;4.27;;;3.10;;
3769;SDS011;1900;48.890;9.190;2022-12-26T08:07:28;4.00;;;3.37;;
3769;SDS011;1900;48.890;9.190;2022-12-26T08:09:54;5.33;;;3.50;;
3769;SDS011;1900;48.890;9.190;2022-12-26T08:12:20;5.70;;;3.40;;
3769;SDS011;1900;48.890;9.190;2022-12-26T08:14:48;7.80;;;3.17;;
3769;SDS011;1900;48.890;9.190;2022-12-26T08:17:14;3.87;;;2.97;;
3769;SDS011;1900;48.890;9.190;2022-12-26T08:19:40;4.40;;;3.20;;
3769;SDS011;1900;48.890;9.190;2022-12-26T08:22:06;3.37;;;3.07;;
3769;SDS011;1900;48.890;9.190;2022-12-26T08:24:31;3.23;;;2.67;;
3769;SDS011;1900;48.890;9.190;2022-12-26T08:26:57;5.50;;;3.50;;
3769;SDS011;1900;48.890;9.190;2022-12-26T08:29:23;4.67;;;3.70;;
3769;SDS011;1900;48.890;9.190;2022-12-26T08:31:48;4.93;;;3.27;;
3769;SDS011;1900;48.890;9.190;2022-12-26T08:34:14;5.90;;;3.50;;
3769;SDS011;1900;48.890;9.190;2022-12-26T08:36:40;6.93;;;3.23;;
3769;SDS011;1900;48.890;9.190;2022-12-26T08:39:05;4.00;;;2.83;;
3769;SDS011;1900;48.890;9.190;2022-12-26T08:41:31;4.30;;;2.87;;
3769;SDS011;1900;48.890;9.190;2022-12-26T08:43:57;6.23;;;3.10;;
3769;SDS011;1900;48.890;9.190;2022-12-26T08:46:22;6.10;;;3.70;;
3769;SDS011;1900;48.890;9.190;2022-12-26T08:48:48;3.50;;;3.03;;
3769;SDS011;1900;48.890;9.190;2022-12-26T08:51:19;4.93;;;3.50;;
3769;SDS011;1900;48.890;9.190;2022-12-26T08:53:49;7.63;;;3.30;;
3769;SDS011;1900;48.890;9.190;2022-12-26T08:56:17;5.70;;;3.83;;
3769;SDS011;1900;48.890;9.190;2022-12-26T08:58:44;4.20;;;3.47;;
3769;SDS011;1900;48.890;9.190;2022-12-26T09:01:11;5.00;;;3.80;;
3769;SDS011;1900;48.890;9.190;2022-12-26T09:03:38;6.23;;;3.70;;
3769;SDS011;1900;48.890;9.190;2022-12-26T09:06:05;4.27;;;3.30;;
3769;SDS011;1900;48.890;9.190;2022-12-26T09:08:31;5.60;;;3.50;;
3769;SDS011;1900;48.890;9.190;2022-12-26T09:11:04;6.20;;;4.47;;
3769;SDS011;1900;48.890;9.190;2022-12-26T09:13:35;4.73;;;3.40;;
3769;SDS011;1900;48.890;9.190;2022-12-26T09:16:02;6.30;;;3.63;;
3769;SDS011;1900;48.890;9.190;2022-12-26T09:18:32;9.83;;;4.90;;
3769;SDS011;1900;48.890;9.190;2022-12-26T09:20:59;5.27;;;3.73;;
3769;SDS011;1900;48.890;9.190;2022-12-26T09:23:26;4.37;;;3.53;;
3769;SDS011;1900;48.890;9.190;2022-12-26T09:25:52;3.97;;;3.53;;
3769;SDS011;1900;48.890;9.190;2022-12-26T09:28:18;4.60;;;3.13;;
3769;SDS011;1900;48.890;9.190;2022-12-26T09:30:44;8.13;;;4.20;;
3769;SDS011;1900;48.890;9.190;2022-12-26T09:33:09;3.60;;;3.20;;
3769;SDS011;1900;48.890;9.190;2022-12-26T09:35:38;5.47;;;3.50;;
3769;SDS011;1900;48.890;9.190;2022-12-26T09:38:04;4.23;;;3.60;;
3769;SDS011;1900;48.890;9.190;2022-12-26T09:40:32;5.70;;;3.87;;
3769;SDS011;1900;48.890;9.190;2022-12-26T09:43:21;7.77;;;4.00;;
3769;SDS011;1900;48.890;9.190;2022-12-26T09:46:14;8.70;;;3.27;;
3769;SDS011;1900;48.890;9.190;2022-12-26T09:49:31;6.43;;;3.30;;
3769;SDS011;1900;48.890;9.190;2022-12-26T09:51:43;4.07;;;3.30;;
3769;SDS011;1900;48.890;9.190;2022-12-26T09:54:20;4.53;;;2.47;;
3769;SDS011;1900;48.890;9.190;2022-12-26T09:56:57;3.23;;;2.50;;
3769;SDS011;1900;48.890;9.190;2022-12-26T09:59:25;4.10;;;2.90;;
3769;SDS011;1900;48.890;9.190;2022-12-26T10:01:51;6.13;;;2.87;;
3769;SDS011;1900;48.890;9.190;2022-12-26T10:04:22;5.87;;;2.70;;
3769;SDS011;1900;48.890;9.190;2022-12-26T10:07:32;3.40;;;2.93;;
3769;SDS011;1900;48.890;9.190;2022-12-26T10:09:58;7.40;;;2.33;;
3769;SDS011;1900;48.890;9.190;2022-12-26T10:18:13;3.90;;;2.13;;
3769;SDS011;1900;48.890;9.190;2022-12-26T10:20:53;5.20;;;2.40;;
3769;SDS011;1900;48.890;9.190;2022-12-26T10:23:38;2.00;;;1.80;;
3769;SDS011;1900;48.890;9.190;2022-12-26T10:28:40;3.70;;;2.10;;
3769;SDS011;1900;48.890;9.190;2022-12-26T10:36:36;2.27;;;1.60;;
3769;SDS011;1900;48.890;9.190;2022-12-26T10:39:24;1.93;;;1.53;;
3769;SDS011;1900;48.890;9.190;2022-12-26T10:41:55;1.90;;;1.67;;
3769;SDS011;1900;48.890;9.190;2022-12-26T10:44:24;2.37;;;1.50;;
3769;SDS011;1900;48.890;9.190;2022-12-26T10:46:53;1.57;;;1.47;;
3769;SDS011;1900;48.890;9.190;2022-12-26T10:49:40;1.97;;;1.77;;
3769;SDS011;1900;48.890;9.190;2022-12-26T10:52:08;2.50;;;1.77;;
3769;SDS011;1900;48.890;9.190;2022-12-26T10:54:36;2.00;;;1.80;;
3769;SDS011;1900;48.890;9.190;2022-12-26T10:57:01;5.83;;;2.23;;
3769;SDS011;1900;48.890;9.190;2022-12-26T10:59:42;2.13;;;1.80;;
3769;SDS011;1900;48.890;9.190;2022-12-26T11:02:19;3.27;;;2.10;;
3769;SDS011;1900;48.890;9.190;2022-12-26T11:05:07;3.33;;;1.53;;
3769;SDS011;1900;48.890;9.190;2022-12-26T11:07:37;1.73;;;1.60;;
3769;SDS011;1900;48.890;9.190;2022-12-26T11:10:13;1.90;;;1.70;;
3769;SDS011;1900;48.890;9.190;2022-12-26T11:12:44;2.93;;;2.00;;
3769;SDS011;1900;48.890;9.190;2022-12-26T11:15:17;3.57;;;2.70;;
3769;SDS011;1900;48.890;9.190;2022-12-26T11:17:44;4.40;;;2.70;;
3769;SDS011;1900;48.890;9.190;2022-12-26T11:22:44;3.90;;;3.10;;
3769;SDS011;1900;48.890;9.190;2022-12-26T11:25:17;4.07;;;2.43;;
3769;SDS011;1900;48.890;9.190;2022-12-26T11:27:55;4.07;;;2.67;;
3769;SDS011;1900;48.890;9.190;2022-12-26T11:30:29;2.60;;;2.40;;
3769;SDS011;1900;48.890;9.190;2022-12-26T11:33:03;3.20;;;2.47;;
3769;SDS011;1900;48.890;9.190;2022-12-26T11:35:48;2.63;;;2.30;;
3769;SDS011;1900;48.890;9.190;2022-12-26T11:38:18;5.53;;;3.00;;
3769;SDS011;1900;48.890;9.190;2022-12-26T11:41:01;4.53;;;2.60;;
3769;SDS011;1900;48.890;9.190;2022-12-26T11:43:49;3.53;;;2.70;;
3769;SDS011;1900;48.890;9.190;2022-12-26T11:46:16;5.20;;;2.53;;
3769;SDS011;1900;48.890;9.190;2022-12-26T11:48:46;3.20;;;2.63;;
3769;SDS011;1900;48.890;9.190;2022-12-26T11:51:14;7.27;;;2.33;;
3769;SDS011;1900;48.890;9.190;2022-12-26T11:53:40;3.90;;;2.27;;
3769;SDS011;1900;48.890;9.190;2022-12-26T11:56:05;2.60;;;1.90;;
3769;SDS011;1900;48.890;9.190;2022-12-26T11:58:33;2.73;;;1.90;;
3769;SDS011;1900;48.890;9.190;2022-12-26T12:15:45;2.33;;;1.67;;
3769;SDS011;1900;48.890;9.190;2022-12-26T12:18:00;2.47;;;1.73;;
3769;SDS011;1900;48.890;9.190;2022-12-26T12:20:34;3.20;;;1.50;;
3769;SDS011;1900;48.890;9.190;2022-12-26T12:28:49;2.57;;;1.40;;
3769;SDS011;1900;48.890;9.190;2022-12-26T12:40:01;1.47;;;1.37;;
3769;SDS011;1900;48.890;9.190;2022-12-26T13:01:22;1.83;;;1.30;;
3769;SDS011;1900;48.890;9.190;2022-12-26T13:04:00;1.30;;;1.20;;
3769;SDS011;1900;48.890;9.190;2022-12-26T13:06:52;2.47;;;1.37;;
3769;SDS011;1900;48.890;9.190;2022-12-26T13:09:24;1.60;;;1.50;;
3769;SDS011;1900;48.890;9.190;2022-12-26T13:14:23;1.67;;;1.57;;
3769;SDS011;1900;48.890;9.190;2022-12-26T13:17:00;1.80;;;1.70;;
3769;SDS011;1900;48.890;9.190;2022-12-26T13:22:24;2.07;;;1.67;;
3769;SDS011;1900;48.890;9.190;2022-12-26T13:24:55;3.73;;;1.53;;
3769;SDS011;1900;48.890;9.190;2022-12-26T13:27:29;3.77;;;1.43;;
3769;SDS011;1900;48.890;9.190;2022-12-26T13:29:57;3.70;;;1.40;;
3769;SDS011;1900;48.890;9.190;2022-12-26T13:34:53;1.53;;;1.30;;
3769;SDS011;1900;48.890;9.190;2022-12-26T13:42:32;1.93;;;1.50;;
3769;SDS011;1900;48.890;9.190;2022-12-26T13:50:52;2.50;;;1.90;;
3769;SDS011;1900;48.890;9.190;2022-12-26T13:56:09;1.50;;;1.40;;
3769;SDS011;1900;48.890;9.190;2022-12-26T14:04:52;2.40;;;1.40;;
3769;SDS011;1900;48.890;9.190;2022-12-26T14:08:20;1.93;;;1.50;;
3769;SDS011;1900;48.890;9.190;2022-12-26T14:10:55;1.40;;;1.23;;
3769;SDS011;1900;48.890;9.190;2022-12-26T14:19:32;1.73;;;1.30;;
3769;SDS011;1900;48.890;9.190;2022-12-26T14:22:11;2.07;;;1.30;;
3769;SDS011;1900;48.890;9.190;2022-12-26T14:30:04;1.40;;;1.30;;
3769;SDS011;1900;48.890;9.190;2022-12-26T14:32:42;3.27;;;1.47;;
3769;SDS011;1900;48.890;9.190;2022-12-26T14:40:56;2.50;;;1.53;;
3769;SDS011;1900;48.890;9.190;2022-12-26T14:43:32;2.10;;;1.90;;
3769;SDS011;1900;48.890;9.190;2022-12-26T14:46:00;2.57;;;1.70;;
3769;SDS011;1900;48.890;9.190;2022-12-26T14:55:52;2.43;;;1.70;;
3769;SDS011;1900;48.890;9.190;2022-12-26T14:58:44;2.13;;;1.73;;
3769;SDS011;1900;48.890;9.190;2022-12-26T15:17:34;1.37;;;1.27;;
3769;SDS011;1900;48.890;9.190;2022-12-26T15:25:10;2.10;;;1.67;;
3769;SDS011;1900;48.890;9.190;2022-12-26T15:33:55;2.83;;;2.00;;
3769;SDS011;1900;48.890;9.190;2022-12-26T15:36:33;2.07;;;1.70;;
3769;SDS011;1900;48.890;9.190;2022-12-26T15:44:48;2.27;;;1.70;;
3769;SDS011;1900;48.890;9.190;2022-12-26T15:53:02;1.90;;;1.47;;
3769;SDS011;1900;48.890;9.190;2022-12-26T15:58:35;2.53;;;1.97;;
3769;SDS011;1900;48.890;9.190;2022-12-26T16:04:30;2.57;;;2.00;;
3769;SDS011;1900;48.890;9.190;2022-12-26T16:09:48;2.37;;;1.63;;
3769;SDS011;1900;48.890;9.190;2022-12-26T16:14:48;2.30;;;1.90;;
3769;SDS011;1900;48.890;9.190;2022-12-26T16:19:41;2.87;;;2.30;;
3769;SDS011;1900;48.890;9.190;2022-12-26T16:22:28;3.50;;;2.20;;
3769;SDS011;1900;48.890;9.190;2022-12-26T16:25:09;4.17;;;2.40;;
3769;SDS011;1900;48.890;9.190;2022-12-26T16:27:47;6.50;;;3.40;;
3769;SDS011;1900;48.890;9.190;2022-12-26T16:30:16;3.20;;;2.80;;
3769;SDS011;1900;48.890;9.190;2022-12-26T16:32:45;3.17;;;2.50;;
3769;SDS011;1900;48.890;9.190;2022-12-26T16:37:51;2.00;;;1.80;;
3769;SDS011;1900;48.890;9.190;2022-12-26T16:42:59;2.20;;;1.70;;
3769;SDS011;1900;48.890;9.190;2022-12-26T16:45:25;2.07;;;1.70;;
3769;SDS011;1900;48.890;9.190;2022-12-26T16:47:54;2.10;;;1.73;;
3769;SDS011;1900;48.890;9.190;2022-12-26T16:50:23;2.37;;;2.10;;
3769;SDS011;1900;48.890;9.190;2022-12-26T16:52:59;1.90;;;1.70;;
3769;SDS011;1900;48.890;9.190;2022-12-26T17:03:36;2.27;;;1.97;;
3769;SDS011;1900;48.890;9.190;2022-12-26T17:06:06;2.13;;;1.90;;
3769;SDS011;1900;48.890;9.190;2022-12-26T17:08:44;2.20;;;2.00;;
3769;SDS011;1900;48.890;9.190;2022-12-26T17:11:12;2.30;;;1.73;;
3769;SDS011;1900;48.890;9.190;2022-12-26T17:13:38;5.30;;;1.90;;
3769;SDS011;1900;48.890;9.190;2022-12-26T17:16:05;3.60;;;1.70;;
3769;SDS011;1900;48.890;9.190;2022-12-26T17:18:45;2.00;;;1.80;;
3769;SDS011;1900;48.890;9.190;2022-12-26T17:23:45;2.10;;;1.90;;
3769;SDS011;1900;48.890;9.190;2022-12-26T17:26:24;2.57;;;2.00;;
3769;SDS011;1900;48.890;9.190;2022-12-26T17:28:52;3.17;;;2.33;;
3769;SDS011;1900;48.890;9.190;2022-12-26T17:31:19;3.80;;;2.70;;
3769;SDS011;1900;48.890;9.190;2022-12-26T17:34:23;3.10;;;2.80;;
3769;SDS011;1900;48.890;9.190;2022-12-26T17:36:50;4.70;;;3.03;;
3769;SDS011;1900;48.890;9.190;2022-12-26T17:39:25;4.27;;;3.13;;
3769;SDS011;1900;48.890;9.190;2022-12-26T17:41:54;5.03;;;2.70;;
3769;SDS011;1900;48.890;9.190;2022-12-26T17:47:01;3.20;;;2.47;;
3769;SDS011;1900;48.890;9.190;2022-12-26T17:49:34;5.30;;;2.60;;
3769;SDS011;1900;48.890;9.190;2022-12-26T17:51:59;1.90;;;1.73;;
3769;SDS011;1900;48.890;9.190;2022-12-26T17:54:25;2.90;;;1.90;;
3769;SDS011;1900;48.890;9.190;2022-12-26T17:56:51;1.90;;;1.70;;
3769;SDS011;1900;48.890;9.190;2022-12-26T17:59:16;4.00;;;2.20;;
3769;SDS011;1900;48.890;9.190;2022-12-26T18:01:42;3.13;;;1.90;;
3769;SDS011;1900;48.890;9.190;2022-12-26T18:04:07;2.03;;;1.63;;
3769;SDS011;1900;48.890;9.190;2022-12-26T18:06:33;2.20;;;1.67;;
3769;SDS011;1900;48.890;9.190;2022-12-26T18:08:59;4.53;;;2.00;;
3769;SDS011;1900;48.890;9.190;2022-12-26T18:11:24;2.10;;;1.50;;
3769;SDS011;1900;48.890;9.190;2022-12-26T18:13:50;4.97;;;1.60;;
3769;SDS011;1900;48.890;9.190;2022-12-26T18:16:17;2.27;;;1.53;;
3769;SDS011;1900;48.890;9.190;2022-12-26T18:18:44;2.20;;;1.57;;
3769;SDS011;1900;48.890;9.190;2022-12-26T18:21:12;1.63;;;1.23;;
3769;SDS011;1900;48.890;9.190;2022-12-26T18:23:39;1.40;;;1.30;;
3769;SDS011;1900;48.890;9.190;2022-12-26T18:26:06;1.57;;;1.20;;
3769;SDS011;1900;48.890;9.190;2022-12-26T18:28:36;1.57;;;1.30;;
3769;SDS011;1900;48.890;9.190;2022-12-26T18:31:02;3.23;;;1.47;;
3769;SDS011;1900;48.890;9.190;2022-12-26T18:33:28;1.23;;;1.13;;
3769;SDS011;1900;48.890;9.190;2022-12-26T18:35:53;1.93;;;1.50;;
3769;SDS011;1900;48.890;9.190;2022-12-26T18:38:19;2.73;;;1.27;;
3769;SDS011;1900;48.890;9.190;2022-12-26T18:40:50;4.37;;;1.30;;
3769;SDS011;1900;48.890;9.190;2022-12-26T18:43:21;1.43;;;1.33;;
3769;SDS011;1900;48.890;9.190;2022-12-26T18:45:47;1.87;;;1.30;;
3769;SDS011;1900;48.890;9.190;2022-12-26T18:48:13;1.30;;;1.13;;
3769;SDS011;1900;48.890;9.190;2022-12-26T18:50:40;2.97;;;1.57;;
3769;SDS011;1900;48.890;9.190;2022-12-26T18:53:07;1.70;;;1.60;;
3769;SDS011;1900;48.890;9.190;2022-12-26T18:55:32;1.63;;;1.40;;
3769;SDS011;1900;48.890;9.190;2022-12-26T18:57:58;2.97;;;1.30;;
3769;SDS011;1900;48.890;9.190;2022-12-26T19:00:24;1.37;;;1.10;;
3769;SDS011;1900;48.890;9.190;2022-12-26T19:02:50;1.50;;;1.40;;
3769;SDS011;1900;48.890;9.190;2022-12-26T19:05:26;1.40;;;1.20;;
3769;SDS011;1900;48.890;9.190;2022-12-26T19:07:55;1.97;;;1.33;;
3769;SDS011;1900;48.890;9.190;2022-12-26T19:10:24;1.63;;;1.23;;
3769;SDS011;1900;48.890;9.190;2022-12-26T19:12:51;4.77;;;1.80;;
3769;SDS011;1900;48.890;9.190;2022-12-26T19:15:17;1.57;;;1.40;;
3769;SDS011;1900;48.890;9.190;2022-12-26T19:17:43;1.67;;;1.20;;
3769;SDS011;1900;48.890;9.190;2022-12-26T19:20:15;4.00;;;1.73;;
3769;SDS011;1900;48.890;9.190;2022-12-26T19:22:45;4.47;;;2.07;;
3769;SDS011;1900;48.890;9.190;2022-12-26T19:25:12;2.83;;;2.07;;
3769;SDS011;1900;48.890;9.190;2022-12-26T19:27:39;6.07;;;1.50;;
3769;SDS011;1900;48.890;9.190;2022-12-26T19:30:05;1.40;;;1.30;;
3769;SDS011;1900;48.890;9.190;2022-12-26T19:32:32;1.50;;;1.40;;
3769;SDS011;1900;48.890;9.190;2022-12-26T19:34:57;1.50;;;1.33;;
3769;SDS011;1900;48.890;9.190;2022-12-26T19:37:23;2.00;;;1.50;;
3769;SDS011;1900;48.890;9.190;2022-12-26T19:39:49;1.30;;;1.20;;